createdAt,value
2023-03-07T00:02:02.264Z,58.30
2023-03-07T00:07:05.763Z,58.35
2023-03-07T00:12:10.697Z,58.49
2023-03-07T00:17:14.204Z,58.80
2023-03-07T00:22:17.535Z,58.92
2023-03-07T00:27:20.939Z,59.03
2023-03-07T00:32:25.681Z,59.22
2023-03-07T00:37:31.051Z,59.38
2023-03-07T00:42:34.555Z,59.62
2023-03-07T00:47:37.893Z,59.84
2023-03-07T00:52:41.497Z,59.91
2023-03-07T00:57:45.120Z,60.12
2023-03-07T01:02:48.743Z,60.10
2023-03-07T01:07:52.729Z,60.16
2023-03-07T01:12:56.151Z,60.53
2023-03-07T01:17:59.637Z,60.44
2023-03-07T01:23:04.057Z,60.68
2023-03-07T01:28:09.683Z,60.69
2023-03-07T01:33:13.021Z,60.68
2023-03-07T01:38:16.475Z,60.66
2023-03-07T01:43:34.699Z,60.82
2023-03-07T01:48:44.966Z,60.80
2023-03-07T01:53:51.077Z,61.00
2023-03-07T01:58:55.698Z,61.15
2023-03-07T02:04:11.886Z,61.32
2023-03-07T02:09:18.884Z,61.61
2023-03-07T02:14:22.056Z,61.65
2023-03-07T02:19:31.109Z,61.62
2023-03-07T02:24:55.891Z,61.54
2023-03-07T02:29:59.273Z,61.56
2023-03-07T02:35:10.667Z,61.69
2023-03-07T02:40:16.803Z,61.87
2023-03-07T02:45:20.469Z,61.85
2023-03-07T02:50:23.981Z,61.80
2023-03-07T02:55:28.763Z,61.90
2023-03-07T03:00:35.873Z,62.09
2023-03-07T03:05:40.424Z,62.00
2023-03-07T03:10:43.933Z,61.88
2023-03-07T03:15:48.250Z,61.99
2023-03-07T03:20:51.562Z,62.08
2023-03-07T03:26:02.690Z,62.21
2023-03-07T03:31:11.187Z,61.96
2023-03-07T03:36:17.553Z,61.95
2023-03-07T03:41:23.597Z,61.92
2023-03-07T03:46:27.123Z,61.97
2023-03-07T03:51:30.985Z,61.99
2023-03-07T03:56:34.604Z,62.00
2023-03-07T04:01:38.761Z,70.47
2023-03-07T04:06:43.183Z,63.91
2023-03-07T04:11:47.353Z,50.93
2023-03-07T04:16:51.264Z,49.56
2023-03-07T04:21:54.982Z,50.79
2023-03-07T04:26:58.547Z,52.14
2023-03-07T04:32:02.689Z,53.41
2023-03-07T04:37:05.955Z,54.24
2023-03-07T04:42:09.462Z,55.22
2023-03-07T04:47:13.620Z,56.22
2023-03-07T04:52:17.113Z,57.17
2023-03-07T04:57:20.980Z,58.20
2023-03-07T05:02:31.034Z,58.80
2023-03-07T05:07:37.422Z,59.18
2023-03-07T05:12:43.071Z,59.49
2023-03-07T05:17:48.568Z,59.98
2023-03-07T05:22:52.146Z,60.08
2023-03-07T05:27:55.795Z,59.86
2023-03-07T05:32:59.257Z,59.56
2023-03-07T05:38:03.371Z,59.47
2023-03-07T05:43:08.414Z,59.29
2023-03-07T05:48:11.762Z,59.14
2023-03-07T05:53:15.126Z,59.04
2023-03-07T05:58:18.715Z,58.98
2023-03-07T06:03:23.582Z,58.76
2023-03-07T06:08:27.365Z,58.61
2023-03-07T06:13:31.514Z,58.38
2023-03-07T06:18:34.872Z,58.16
2023-03-07T06:23:39.129Z,58.03
2023-03-07T06:28:46.298Z,58.03
2023-03-07T06:33:51.232Z,57.86
2023-03-07T06:38:55.436Z,57.67
2023-03-07T06:43:59.669Z,57.54
2023-03-07T06:49:06.026Z,57.43
2023-03-07T06:54:10.352Z,57.31
2023-03-07T06:59:14.552Z,57.04
2023-03-07T07:04:18.483Z,57.07
2023-03-07T07:09:22.171Z,56.87
2023-03-07T07:14:26.042Z,56.77
2023-03-07T07:19:29.540Z,56.52
2023-03-07T07:24:33.787Z,56.30
2023-03-07T07:29:37.167Z,56.13
2023-03-07T07:34:40.536Z,56.00
2023-03-07T07:39:44.315Z,55.60
2023-03-07T07:44:48.691Z,55.32
2023-03-07T07:49:52.384Z,54.37
2023-03-07T07:54:56.870Z,54.59
2023-03-07T08:00:00.811Z,54.10
2023-03-07T08:05:08.191Z,53.69
2023-03-07T08:10:16.964Z,53.34
2023-03-07T08:15:24.333Z,53.51
2023-03-07T08:20:27.660Z,53.47
2023-03-07T08:25:32.202Z,53.21
2023-03-07T08:30:37.065Z,53.07
2023-03-07T08:35:40.447Z,52.65
2023-03-07T08:40:43.970Z,52.42
2023-03-07T08:45:51.183Z,51.87
2023-03-07T08:50:55.369Z,51.64
2023-03-07T08:55:58.820Z,51.57
2023-03-07T09:01:05.422Z,51.15
2023-03-07T09:06:15.022Z,51.39
2023-03-07T09:11:19.720Z,51.06
2023-03-07T09:16:24.061Z,50.48
2023-03-07T09:21:27.509Z,50.59
2023-03-07T09:26:31.451Z,50.27
2023-03-07T09:31:34.689Z,49.88
2023-03-07T09:36:38.352Z,49.16
2023-03-07T09:42:18.794Z,49.41
2023-03-07T09:48:07.982Z,48.06
2023-03-07T09:53:22.500Z,48.09
2023-03-07T09:58:27.429Z,47.16
2023-03-07T10:03:58.108Z,46.99
2023-03-07T10:09:02.720Z,46.39
2023-03-07T10:14:12.514Z,46.09
2023-03-07T10:19:46.893Z,45.85
2023-03-07T10:25:34.369Z,45.85
2023-03-07T10:30:38.017Z,45.51
2023-03-07T10:35:44.003Z,45.40
2023-03-07T10:41:14.136Z,45.50
2023-03-07T10:46:28.114Z,45.60
2023-03-07T10:52:05.518Z,45.56
2023-03-07T10:57:13.446Z,45.43
2023-03-07T11:02:41.114Z,45.13
2023-03-07T11:07:44.593Z,44.83
2023-03-07T11:12:48.569Z,44.54
2023-03-07T11:17:52.860Z,44.73
2023-03-07T11:23:18.463Z,44.53
2023-03-07T11:28:33.670Z,44.67
2023-03-07T11:33:39.268Z,44.52
2023-03-07T11:38:54.184Z,44.74
2023-03-07T11:44:15.405Z,44.68
2023-03-07T11:49:33.801Z,45.38
2023-03-07T11:54:49.550Z,45.42
2023-03-07T11:59:58.897Z,44.66
2023-03-07T12:05:39.389Z,44.67
2023-03-07T12:11:06.586Z,45.14
2023-03-07T12:16:31.805Z,44.90
2023-03-07T12:21:52.692Z,45.08
2023-03-07T12:26:58.956Z,45.04
2023-03-07T12:32:09.250Z,44.72
2023-03-07T12:37:20.613Z,44.76
2023-03-07T12:42:42.330Z,44.98
2023-03-07T12:47:58.970Z,45.34
2023-03-07T12:53:16.635Z,45.13
2023-03-07T12:58:38.978Z,45.12
2023-03-07T13:03:56.969Z,44.87
2023-03-07T13:09:04.214Z,45.22
2023-03-07T13:14:30.772Z,45.30
2023-03-07T13:19:37.041Z,44.98
2023-03-07T13:24:42.704Z,44.36
2023-03-07T13:30:12.346Z,44.28
2023-03-07T13:35:28.488Z,44.62
2023-03-07T13:40:43.681Z,44.42
2023-03-07T13:45:53.361Z,43.72
2023-03-07T13:58:18.100Z,44.36
2023-03-07T14:03:29.708Z,44.34
2023-03-07T14:08:35.719Z,44.77
2023-03-07T14:13:46.087Z,44.92
2023-03-07T14:18:54.836Z,44.92
2023-03-07T14:24:13.317Z,44.88
2023-03-07T14:29:22.703Z,45.11
2023-03-07T14:34:36.065Z,45.13
2023-03-07T14:40:09.073Z,45.35
2023-03-07T14:45:28.584Z,45.12
2023-03-07T14:50:33.133Z,44.92
2023-03-07T14:55:39.928Z,45.13
2023-03-07T15:00:43.832Z,45.20
2023-03-07T15:05:48.654Z,45.07
2023-03-07T15:11:03.241Z,44.98
2023-03-07T15:16:12.559Z,45.11
2023-03-07T15:21:27.199Z,45.32
2023-03-07T15:26:32.017Z,45.30
2023-03-07T15:32:00.021Z,45.60
2023-03-07T15:37:29.221Z,45.60
2023-03-07T15:42:33.220Z,45.32
2023-03-07T15:47:37.016Z,45.26
2023-03-07T15:52:40.550Z,44.82
2023-03-07T15:57:56.920Z,44.72
2023-03-07T16:11:07.101Z,44.34
2023-03-07T16:16:13.463Z,44.72
2023-03-07T16:21:17.663Z,44.40
2023-03-07T16:26:23.892Z,44.17
2023-03-07T16:31:27.458Z,43.98
2023-03-07T16:36:30.874Z,44.26
2023-03-07T16:41:38.028Z,44.71
2023-03-07T16:46:43.690Z,44.68
2023-03-07T16:52:03.080Z,44.90
2023-03-07T16:57:14.318Z,44.98
2023-03-07T17:02:20.927Z,45.24
2023-03-07T17:07:24.440Z,45.07
2023-03-07T17:12:27.650Z,45.24
2023-03-07T17:17:33.793Z,45.33
2023-03-07T17:22:37.454Z,45.32
2023-03-07T17:27:51.499Z,45.35
2023-03-07T17:32:55.156Z,45.63
2023-03-07T17:37:58.639Z,45.78
2023-03-07T17:43:04.003Z,45.80
2023-03-07T17:48:07.281Z,45.90
2023-03-07T17:53:11.108Z,45.91
2023-03-07T17:58:14.321Z,46.05
2023-03-07T18:03:17.550Z,46.17
2023-03-07T18:08:20.893Z,46.30
2023-03-07T18:13:24.572Z,46.74
2023-03-07T18:18:33.385Z,47.07
2023-03-07T18:23:36.659Z,47.23
2023-03-07T18:28:42.223Z,47.78
2023-03-07T18:33:47.862Z,48.18
2023-03-07T18:38:51.543Z,48.32
2023-03-07T18:43:56.604Z,48.41
2023-03-07T18:49:49.335Z,48.72
2023-03-07T18:54:52.977Z,48.73
2023-03-07T18:59:57.132Z,48.86
2023-03-07T19:05:06.866Z,48.96
2023-03-07T19:11:00.032Z,48.91
2023-03-07T19:22:45.397Z,49.05
2023-03-07T19:28:17.194Z,49.19
2023-03-07T19:33:21.334Z,49.22
2023-03-07T19:38:43.226Z,49.39
2023-03-07T19:43:48.757Z,49.36
2023-03-07T19:49:09.532Z,49.36
2023-03-07T19:59:44.697Z,49.44
2023-03-07T20:04:55.959Z,49.39
2023-03-07T20:10:30.080Z,49.55
2023-03-07T20:15:40.407Z,49.36
2023-03-07T20:20:43.876Z,49.22
2023-03-07T20:26:32.278Z,49.27
2023-03-07T20:31:51.608Z,49.32
2023-03-07T20:37:12.986Z,49.48
2023-03-07T20:42:17.268Z,49.53
2023-03-07T20:47:22.236Z,49.58
2023-03-07T20:52:29.883Z,49.81
2023-03-07T20:57:42.986Z,49.51
2023-03-07T21:02:54.111Z,49.49
2023-03-07T21:08:24.237Z,49.43
2023-03-07T21:13:36.751Z,49.32
2023-03-07T21:18:46.501Z,49.32
2023-03-07T21:23:58.309Z,49.34
2023-03-07T21:29:38.780Z,49.25
2023-03-07T21:34:57.304Z,49.16
2023-03-07T21:40:06.203Z,49.08
2023-03-07T21:50:56.255Z,49.15
2023-03-07T21:56:24.136Z,49.00
2023-03-07T22:01:31.248Z,48.91
2023-03-07T22:06:36.316Z,48.74
2023-03-07T22:11:41.267Z,48.52
2023-03-07T22:16:51.321Z,48.47
2023-03-07T22:21:58.619Z,48.31
2023-03-07T22:27:05.037Z,48.36
2023-03-07T22:32:12.388Z,48.42
2023-03-07T22:37:18.685Z,48.51
2023-03-07T22:42:26.739Z,48.62
2023-03-07T22:47:31.504Z,48.80
2023-03-07T22:58:21.036Z,49.21
2023-03-07T23:03:32.497Z,49.34
2023-03-07T23:08:36.568Z,49.57
2023-03-07T23:13:53.738Z,49.59
2023-03-07T23:18:59.919Z,49.80
2023-03-07T23:24:05.095Z,49.86
2023-03-07T23:29:10.630Z,49.98
2023-03-07T23:34:18.109Z,49.96
2023-03-07T23:39:32.648Z,49.91
2023-03-07T23:44:39.625Z,49.76
2023-03-07T23:49:46.263Z,49.94
2023-03-07T23:54:56.838Z,50.05
